sensor_id;sensor_type;location;lat;lon;timestamp;temperature;humidity
65568;DHT22;52211;50.154;8.682;2023-10-09T00:00:25;16.90;63.40
65568;DHT22;52211;50.154;8.682;2023-10-09T00:03:07;16.90;63.30
65568;DHT22;52211;50.154;8.682;2023-10-09T00:05:34;17.00;63.40
65568;DHT22;52211;50.154;8.682;2023-10-09T00:08:16;16.90;63.40
65568;DHT22;52211;50.154;8.682;2023-10-09T00:10:59;16.90;63.50
65568;DHT22;52211;50.154;8.682;2023-10-09T00:13:45;16.90;63.40
65568;DHT22;52211;50.154;8.682;2023-10-09T00:16:20;16.90;63.40
65568;DHT22;52211;50.154;8.682;2023-10-09T00:19:05;16.90;63.40
65568;DHT22;52211;50.154;8.682;2023-10-09T00:21:57;16.90;63.60
65568;DHT22;52211;50.154;8.682;2023-10-09T00:24:25;16.90;63.40
65568;DHT22;52211;50.154;8.682;2023-10-09T00:26:56;16.90;63.50
65568;DHT22;52211;50.154;8.682;2023-10-09T00:29:31;16.90;63.50
65568;DHT22;52211;50.154;8.682;2023-10-09T00:32:04;16.90;63.60
65568;DHT22;52211;50.154;8.682;2023-10-09T00:34:40;16.80;63.50
65568;DHT22;52211;50.154;8.682;2023-10-09T00:37:11;16.80;63.50
65568;DHT22;52211;50.154;8.682;2023-10-09T00:39:54;16.90;63.60
65568;DHT22;52211;50.154;8.682;2023-10-09T00:42:26;16.80;63.60
65568;DHT22;52211;50.154;8.682;2023-10-09T00:44:57;16.80;63.60
65568;DHT22;52211;50.154;8.682;2023-10-09T00:47:32;16.80;63.60
65568;DHT22;52211;50.154;8.682;2023-10-09T00:50:10;16.80;63.70
65568;DHT22;52211;50.154;8.682;2023-10-09T00:52:53;16.80;63.80
65568;DHT22;52211;50.154;8.682;2023-10-09T00:55:32;16.80;63.70
65568;DHT22;52211;50.154;8.682;2023-10-09T00:58:15;16.80;63.70
65568;DHT22;52211;50.154;8.682;2023-10-09T01:00:50;16.80;63.90
65568;DHT22;52211;50.154;8.682;2023-10-09T01:03:19;16.80;63.80
65568;DHT22;52211;50.154;8.682;2023-10-09T01:05:57;16.70;63.80
65568;DHT22;52211;50.154;8.682;2023-10-09T01:08:38;16.70;63.90
65568;DHT22;52211;50.154;8.682;2023-10-09T01:11:14;16.70;63.90
65568;DHT22;52211;50.154;8.682;2023-10-09T01:13:50;16.70;64.20
65568;DHT22;52211;50.154;8.682;2023-10-09T01:16:19;16.70;63.90
65568;DHT22;52211;50.154;8.682;2023-10-09T01:18:53;16.70;64.00
65568;DHT22;52211;50.154;8.682;2023-10-09T01:21:26;16.70;64.10
65568;DHT22;52211;50.154;8.682;2023-10-09T01:23:54;16.70;64.00
65568;DHT22;52211;50.154;8.682;2023-10-09T01:26:35;16.60;63.90
65568;DHT22;52211;50.154;8.682;2023-10-09T01:29:15;16.60;64.10
65568;DHT22;52211;50.154;8.682;2023-10-09T01:31:53;16.60;64.00
65568;DHT22;52211;50.154;8.682;2023-10-09T01:34:34;16.60;64.30
65568;DHT22;52211;50.154;8.682;2023-10-09T01:37:30;16.60;64.20
65568;DHT22;52211;50.154;8.682;2023-10-09T01:39:58;16.60;64.00
65568;DHT22;52211;50.154;8.682;2023-10-09T01:42:31;16.60;64.10
65568;DHT22;52211;50.154;8.682;2023-10-09T01:45:02;16.50;64.10
65568;DHT22;52211;50.154;8.682;2023-10-09T01:47:40;16.50;64.10
65568;DHT22;52211;50.154;8.682;2023-10-09T01:50:09;16.50;64.30
65568;DHT22;52211;50.154;8.682;2023-10-09T01:52:48;16.50;64.20
65568;DHT22;52211;50.154;8.682;2023-10-09T01:55:16;16.50;64.20
65568;DHT22;52211;50.154;8.682;2023-10-09T01:58:05;16.40;64.30
65568;DHT22;52211;50.154;8.682;2023-10-09T02:00:43;16.40;64.30
65568;DHT22;52211;50.154;8.682;2023-10-09T02:03:14;16.40;64.30
65568;DHT22;52211;50.154;8.682;2023-10-09T02:05:42;16.40;64.30
65568;DHT22;52211;50.154;8.682;2023-10-09T02:08:09;16.40;64.30
65568;DHT22;52211;50.154;8.682;2023-10-09T02:10:44;16.30;64.40
65568;DHT22;52211;50.154;8.682;2023-10-09T02:13:17;16.30;64.50
65568;DHT22;52211;50.154;8.682;2023-10-09T02:15:48;16.30;64.50
65568;DHT22;52211;50.154;8.682;2023-10-09T02:18:21;16.30;64.50
65568;DHT22;52211;50.154;8.682;2023-10-09T02:20:52;16.30;64.60
65568;DHT22;52211;50.154;8.682;2023-10-09T02:23:34;16.30;64.70
65568;DHT22;52211;50.154;8.682;2023-10-09T02:26:11;16.30;64.80
65568;DHT22;52211;50.154;8.682;2023-10-09T02:28:46;16.30;64.70
65568;DHT22;52211;50.154;8.682;2023-10-09T02:31:26;16.30;64.80
65568;DHT22;52211;50.154;8.682;2023-10-09T02:34:03;16.30;64.80
65568;DHT22;52211;50.154;8.682;2023-10-09T02:36:31;16.30;64.80
65568;DHT22;52211;50.154;8.682;2023-10-09T02:39:04;16.30;64.80
65568;DHT22;52211;50.154;8.682;2023-10-09T02:41:53;16.30;64.80
65568;DHT22;52211;50.154;8.682;2023-10-09T02:44:27;16.30;64.80
65568;DHT22;52211;50.154;8.682;2023-10-09T02:46:59;16.30;64.80
65568;DHT22;52211;50.154;8.682;2023-10-09T02:49:34;16.30;64.80
65568;DHT22;52211;50.154;8.682;2023-10-09T02:52:06;16.30;64.80
65568;DHT22;52211;50.154;8.682;2023-10-09T02:54:37;16.30;64.80
65568;DHT22;52211;50.154;8.682;2023-10-09T02:57:08;16.30;64.90
65568;DHT22;52211;50.154;8.682;2023-10-09T02:59:44;16.30;64.90
65568;DHT22;52211;50.154;8.682;2023-10-09T03:02:12;16.30;64.90
65568;DHT22;52211;50.154;8.682;2023-10-09T03:04:39;16.30;64.90
65568;DHT22;52211;50.154;8.682;2023-10-09T03:07:08;16.30;64.90
65568;DHT22;52211;50.154;8.682;2023-10-09T03:09:41;16.30;64.90
65568;DHT22;52211;50.154;8.682;2023-10-09T03:12:08;16.30;64.90
65568;DHT22;52211;50.154;8.682;2023-10-09T03:14:41;16.30;64.90
65568;DHT22;52211;50.154;8.682;2023-10-09T03:17:11;16.30;64.90
65568;DHT22;52211;50.154;8.682;2023-10-09T03:19:41;16.30;65.00
65568;DHT22;52211;50.154;8.682;2023-10-09T03:22:12;16.20;65.00
65568;DHT22;52211;50.154;8.682;2023-10-09T03:24:40;16.20;65.00
65568;DHT22;52211;50.154;8.682;2023-10-09T03:27:16;16.20;65.00
65568;DHT22;52211;50.154;8.682;2023-10-09T03:29:48;16.20;65.00
65568;DHT22;52211;50.154;8.682;2023-10-09T03:32:25;16.20;65.00
65568;DHT22;52211;50.154;8.682;2023-10-09T03:34:59;16.20;65.20
65568;DHT22;52211;50.154;8.682;2023-10-09T03:37:26;16.20;65.20
65568;DHT22;52211;50.154;8.682;2023-10-09T03:40:06;16.20;65.20
65568;DHT22;52211;50.154;8.682;2023-10-09T03:42:34;16.20;65.20
65568;DHT22;52211;50.154;8.682;2023-10-09T03:45:06;16.20;65.80
65568;DHT22;52211;50.154;8.682;2023-10-09T03:47:45;16.20;65.30
65568;DHT22;52211;50.154;8.682;2023-10-09T03:50:14;16.20;65.30
65568;DHT22;52211;50.154;8.682;2023-10-09T03:52:56;16.20;65.20
65568;DHT22;52211;50.154;8.682;2023-10-09T03:55:23;16.20;65.30
65568;DHT22;52211;50.154;8.682;2023-10-09T03:57:56;16.20;65.30
65568;DHT22;52211;50.154;8.682;2023-10-09T04:00:29;16.20;65.50
65568;DHT22;52211;50.154;8.682;2023-10-09T04:03:07;16.20;65.50
65568;DHT22;52211;50.154;8.682;2023-10-09T04:05:38;16.20;65.50
65568;DHT22;52211;50.154;8.682;2023-10-09T04:08:10;16.20;65.50
65568;DHT22;52211;50.154;8.682;2023-10-09T04:10:55;16.20;65.60
65568;DHT22;52211;50.154;8.682;2023-10-09T04:13:32;16.20;65.50
65568;DHT22;52211;50.154;8.682;2023-10-09T04:16:05;16.20;65.60
65568;DHT22;52211;50.154;8.682;2023-10-09T04:19:02;16.20;65.60
65568;DHT22;52211;50.154;8.682;2023-10-09T04:21:40;16.20;66.20
65568;DHT22;52211;50.154;8.682;2023-10-09T04:24:10;16.20;65.60
65568;DHT22;52211;50.154;8.682;2023-10-09T04:26:42;16.20;65.60
65568;DHT22;52211;50.154;8.682;2023-10-09T04:29:16;16.30;65.60
65568;DHT22;52211;50.154;8.682;2023-10-09T04:31:57;16.20;65.70
65568;DHT22;52211;50.154;8.682;2023-10-09T04:34:29;16.20;65.60
65568;DHT22;52211;50.154;8.682;2023-10-09T04:37:04;16.20;65.80
65568;DHT22;52211;50.154;8.682;2023-10-09T04:39:40;16.20;65.70
65568;DHT22;52211;50.154;8.682;2023-10-09T04:42:18;16.20;65.70
65568;DHT22;52211;50.154;8.682;2023-10-09T04:44:52;16.20;65.80
65568;DHT22;52211;50.154;8.682;2023-10-09T04:47:37;16.30;65.80
65568;DHT22;52211;50.154;8.682;2023-10-09T04:50:09;16.30;65.90
65568;DHT22;52211;50.154;8.682;2023-10-09T04:52:47;16.30;66.40
65568;DHT22;52211;50.154;8.682;2023-10-09T04:55:16;16.30;65.80
65568;DHT22;52211;50.154;8.682;2023-10-09T04:57:51;16.30;65.70
65568;DHT22;52211;50.154;8.682;2023-10-09T05:00:41;16.30;65.70
65568;DHT22;52211;50.154;8.682;2023-10-09T05:03:08;16.30;65.70
65568;DHT22;52211;50.154;8.682;2023-10-09T05:05:42;16.30;65.90
65568;DHT22;52211;50.154;8.682;2023-10-09T05:08:16;16.40;65.90
65568;DHT22;52211;50.154;8.682;2023-10-09T05:11:02;16.40;66.00
65568;DHT22;52211;50.154;8.682;2023-10-09T05:13:33;16.40;66.20
65568;DHT22;52211;50.154;8.682;2023-10-09T05:16:12;16.50;66.10
65568;DHT22;52211;50.154;8.682;2023-10-09T05:18:55;16.50;66.10
65568;DHT22;52211;50.154;8.682;2023-10-09T05:21:54;16.60;66.10
65568;DHT22;52211;50.154;8.682;2023-10-09T05:24:25;16.60;66.00
65568;DHT22;52211;50.154;8.682;2023-10-09T05:26:55;16.70;66.10
65568;DHT22;52211;50.154;8.682;2023-10-09T05:29:42;16.70;66.10
65568;DHT22;52211;50.154;8.682;2023-10-09T05:32:26;16.80;66.10
65568;DHT22;52211;50.154;8.682;2023-10-09T05:35:04;16.80;66.10
65568;DHT22;52211;50.154;8.682;2023-10-09T05:37:34;16.90;66.10
65568;DHT22;52211;50.154;8.682;2023-10-09T05:40:05;17.00;66.20
65568;DHT22;52211;50.154;8.682;2023-10-09T05:42:47;17.00;66.30
65568;DHT22;52211;50.154;8.682;2023-10-09T05:45:25;17.00;66.20
65568;DHT22;52211;50.154;8.682;2023-10-09T05:48:12;17.00;65.90
65568;DHT22;52211;50.154;8.682;2023-10-09T05:50:42;17.00;65.90
65568;DHT22;52211;50.154;8.682;2023-10-09T05:53:30;17.10;65.90
65568;DHT22;52211;50.154;8.682;2023-10-09T05:56:16;17.20;65.90
65568;DHT22;52211;50.154;8.682;2023-10-09T05:59:01;17.20;66.00
65568;DHT22;52211;50.154;8.682;2023-10-09T06:01:46;17.20;65.90
65568;DHT22;52211;50.154;8.682;2023-10-09T06:04:25;17.20;65.80
65568;DHT22;52211;50.154;8.682;2023-10-09T06:07:12;17.30;65.90
65568;DHT22;52211;50.154;8.682;2023-10-09T06:09:40;17.30;65.90
65568;DHT22;52211;50.154;8.682;2023-10-09T06:12:26;17.30;65.80
65568;DHT22;52211;50.154;8.682;2023-10-09T06:15:03;17.30;65.80
65568;DHT22;52211;50.154;8.682;2023-10-09T06:17:59;17.30;65.80
65568;DHT22;52211;50.154;8.682;2023-10-09T06:20:48;17.40;65.80
65568;DHT22;52211;50.154;8.682;2023-10-09T06:23:50;17.40;65.70
65568;DHT22;52211;50.154;8.682;2023-10-09T06:26:36;17.40;65.70
65568;DHT22;52211;50.154;8.682;2023-10-09T06:29:03;17.40;65.60
65568;DHT22;52211;50.154;8.682;2023-10-09T06:31:53;17.50;65.70
65568;DHT22;52211;50.154;8.682;2023-10-09T06:34:32;17.50;66.30
65568;DHT22;52211;50.154;8.682;2023-10-09T06:37:02;17.60;65.70
65568;DHT22;52211;50.154;8.682;2023-10-09T06:39:48;17.60;65.70
65568;DHT22;52211;50.154;8.682;2023-10-09T06:42:28;17.60;65.60
65568;DHT22;52211;50.154;8.682;2023-10-09T06:45:08;17.60;65.60
65568;DHT22;52211;50.154;8.682;2023-10-09T06:47:49;17.60;65.50
65568;DHT22;52211;50.154;8.682;2023-10-09T06:50:25;17.70;65.60
65568;DHT22;52211;50.154;8.682;2023-10-09T06:52:53;17.70;65.50
65568;DHT22;52211;50.154;8.682;2023-10-09T06:55:51;17.70;65.40
65568;DHT22;52211;50.154;8.682;2023-10-09T06:58:19;17.70;65.40
65568;DHT22;52211;50.154;8.682;2023-10-09T07:00:55;17.80;65.40
65568;DHT22;52211;50.154;8.682;2023-10-09T07:03:29;17.80;65.40
65568;DHT22;52211;50.154;8.682;2023-10-09T07:06:07;17.80;65.40
65568;DHT22;52211;50.154;8.682;2023-10-09T07:09:13;17.80;65.40
65568;DHT22;52211;50.154;8.682;2023-10-09T07:11:49;17.80;65.30
65568;DHT22;52211;50.154;8.682;2023-10-09T07:14:22;17.90;65.30
65568;DHT22;52211;50.154;8.682;2023-10-09T07:17:19;17.90;65.30
65568;DHT22;52211;50.154;8.682;2023-10-09T07:19:50;18.00;65.30
65568;DHT22;52211;50.154;8.682;2023-10-09T07:22:23;18.00;65.30
65568;DHT22;52211;50.154;8.682;2023-10-09T07:24:57;18.00;65.30
65568;DHT22;52211;50.154;8.682;2023-10-09T07:27:31;18.00;65.30
65568;DHT22;52211;50.154;8.682;2023-10-09T07:30:19;18.10;65.30
65568;DHT22;52211;50.154;8.682;2023-10-09T07:33:03;18.10;65.20
65568;DHT22;52211;50.154;8.682;2023-10-09T07:38:16;18.10;65.10
65568;DHT22;52211;50.154;8.682;2023-10-09T07:40:53;18.20;65.10
65568;DHT22;52211;50.154;8.682;2023-10-09T07:43:29;18.20;65.00
65568;DHT22;52211;50.154;8.682;2023-10-09T07:46:17;18.30;65.00
65568;DHT22;52211;50.154;8.682;2023-10-09T07:49:10;18.30;65.00
65568;DHT22;52211;50.154;8.682;2023-10-09T07:51:43;18.30;64.90
65568;DHT22;52211;50.154;8.682;2023-10-09T07:54:16;18.30;64.80
65568;DHT22;52211;50.154;8.682;2023-10-09T07:56:59;18.30;64.80
65568;DHT22;52211;50.154;8.682;2023-10-09T07:59:35;18.30;64.80
65568;DHT22;52211;50.154;8.682;2023-10-09T08:02:10;18.40;64.90
65568;DHT22;52211;50.154;8.682;2023-10-09T08:04:40;18.40;64.80
65568;DHT22;52211;50.154;8.682;2023-10-09T08:07:16;18.50;64.90
65568;DHT22;52211;50.154;8.682;2023-10-09T08:10:12;18.50;64.80
65568;DHT22;52211;50.154;8.682;2023-10-09T08:12:45;18.50;64.80
65568;DHT22;52211;50.154;8.682;2023-10-09T08:15:20;18.60;64.80
65568;DHT22;52211;50.154;8.682;2023-10-09T08:17:54;18.70;64.80
65568;DHT22;52211;50.154;8.682;2023-10-09T08:20:38;18.70;64.70
65568;DHT22;52211;50.154;8.682;2023-10-09T08:23:24;18.80;64.70
65568;DHT22;52211;50.154;8.682;2023-10-09T08:26:02;18.90;64.70
65568;DHT22;52211;50.154;8.682;2023-10-09T08:28:45;18.90;64.60
65568;DHT22;52211;50.154;8.682;2023-10-09T08:31:18;19.00;64.50
65568;DHT22;52211;50.154;8.682;2023-10-09T08:33:48;19.00;64.40
65568;DHT22;52211;50.154;8.682;2023-10-09T08:36:28;19.10;64.40
65568;DHT22;52211;50.154;8.682;2023-10-09T08:38:59;19.10;64.30
65568;DHT22;52211;50.154;8.682;2023-10-09T08:41:41;19.10;64.10
65568;DHT22;52211;50.154;8.682;2023-10-09T08:44:12;19.10;64.10
65568;DHT22;52211;50.154;8.682;2023-10-09T08:46:42;19.20;64.10
65568;DHT22;52211;50.154;8.682;2023-10-09T08:49:10;19.20;64.10
65568;DHT22;52211;50.154;8.682;2023-10-09T08:51:40;19.20;64.10
65568;DHT22;52211;50.154;8.682;2023-10-09T08:54:11;19.20;64.20
65568;DHT22;52211;50.154;8.682;2023-10-09T08:56:47;19.30;64.30
65568;DHT22;52211;50.154;8.682;2023-10-09T08:59:18;19.30;64.20
65568;DHT22;52211;50.154;8.682;2023-10-09T09:01:48;19.40;64.20
65568;DHT22;52211;50.154;8.682;2023-10-09T09:04:40;19.40;64.10
65568;DHT22;52211;50.154;8.682;2023-10-09T09:07:29;19.40;63.80
65568;DHT22;52211;50.154;8.682;2023-10-09T09:10:01;19.50;63.80
65568;DHT22;52211;50.154;8.682;2023-10-09T09:12:48;19.60;63.90
65568;DHT22;52211;50.154;8.682;2023-10-09T09:15:27;19.60;63.80
65568;DHT22;52211;50.154;8.682;2023-10-09T09:18:10;19.60;63.70
65568;DHT22;52211;50.154;8.682;2023-10-09T09:20:37;19.70;63.50
65568;DHT22;52211;50.154;8.682;2023-10-09T09:23:10;19.80;63.60
65568;DHT22;52211;50.154;8.682;2023-10-09T09:25:42;19.90;63.50
65568;DHT22;52211;50.154;8.682;2023-10-09T09:28:18;19.90;63.40
65568;DHT22;52211;50.154;8.682;2023-10-09T09:30:48;19.90;63.20
65568;DHT22;52211;50.154;8.682;2023-10-09T09:33:24;19.90;63.10
65568;DHT22;52211;50.154;8.682;2023-10-09T09:35:59;19.90;63.60
65568;DHT22;52211;50.154;8.682;2023-10-09T09:38:35;19.90;63.10
65568;DHT22;52211;50.154;8.682;2023-10-09T09:41:18;19.90;63.20
65568;DHT22;52211;50.154;8.682;2023-10-09T09:43:58;20.00;63.20
65568;DHT22;52211;50.154;8.682;2023-10-09T09:46:37;20.00;63.20
65568;DHT22;52211;50.154;8.682;2023-10-09T09:49:08;20.00;63.10
65568;DHT22;52211;50.154;8.682;2023-10-09T09:51:50;20.00;63.20
65568;DHT22;52211;50.154;8.682;2023-10-09T09:54:17;20.00;63.10
65568;DHT22;52211;50.154;8.682;2023-10-09T09:56:57;20.10;63.20
65568;DHT22;52211;50.154;8.682;2023-10-09T09:59:26;20.10;63.10
65568;DHT22;52211;50.154;8.682;2023-10-09T10:02:03;20.10;63.10
65568;DHT22;52211;50.154;8.682;2023-10-09T10:04:39;20.10;63.20
65568;DHT22;52211;50.154;8.682;2023-10-09T10:07:11;20.10;63.20
65568;DHT22;52211;50.154;8.682;2023-10-09T10:09:43;20.20;63.20
65568;DHT22;52211;50.154;8.682;2023-10-09T10:12:11;20.20;63.10
65568;DHT22;52211;50.154;8.682;2023-10-09T10:14:57;20.30;63.10
65568;DHT22;52211;50.154;8.682;2023-10-09T10:20:23;20.30;62.90
65568;DHT22;52211;50.154;8.682;2023-10-09T10:22:51;20.30;62.90
65568;DHT22;52211;50.154;8.682;2023-10-09T10:25:45;20.30;62.90
65568;DHT22;52211;50.154;8.682;2023-10-09T10:28:24;20.30;62.90
65568;DHT22;52211;50.154;8.682;2023-10-09T10:31:12;20.30;63.00
65568;DHT22;52211;50.154;8.682;2023-10-09T10:36:25;20.40;62.90
65568;DHT22;52211;50.154;8.682;2023-10-09T10:39:03;20.40;63.00
65568;DHT22;52211;50.154;8.682;2023-10-09T10:41:39;20.40;62.90
65568;DHT22;52211;50.154;8.682;2023-10-09T10:44:29;20.40;63.00
65568;DHT22;52211;50.154;8.682;2023-10-09T10:47:05;20.50;63.00
65568;DHT22;52211;50.154;8.682;2023-10-09T10:49:51;20.50;63.10
65568;DHT22;52211;50.154;8.682;2023-10-09T10:52:26;20.60;63.10
65568;DHT22;52211;50.154;8.682;2023-10-09T10:55:16;20.60;63.10
65568;DHT22;52211;50.154;8.682;2023-10-09T10:57:45;20.80;63.00
65568;DHT22;52211;50.154;8.682;2023-10-09T11:00:31;20.80;63.00
65568;DHT22;52211;50.154;8.682;2023-10-09T11:03:21;20.90;62.90
65568;DHT22;52211;50.154;8.682;2023-10-09T11:06:03;21.00;62.90
65568;DHT22;52211;50.154;8.682;2023-10-09T11:08:46;21.10;62.80
65568;DHT22;52211;50.154;8.682;2023-10-09T11:11:36;21.20;62.60
65568;DHT22;52211;50.154;8.682;2023-10-09T11:14:13;21.30;62.50
65568;DHT22;52211;50.154;8.682;2023-10-09T11:16:55;21.40;62.50
65568;DHT22;52211;50.154;8.682;2023-10-09T11:19:48;21.50;62.30
65568;DHT22;52211;50.154;8.682;2023-10-09T11:22:21;21.50;62.10
65568;DHT22;52211;50.154;8.682;2023-10-09T11:24:57;21.60;62.00
65568;DHT22;52211;50.154;8.682;2023-10-09T11:27:40;21.60;61.70
65568;DHT22;52211;50.154;8.682;2023-10-09T11:30:18;21.70;61.50
65568;DHT22;52211;50.154;8.682;2023-10-09T11:33:07;21.80;61.60
65568;DHT22;52211;50.154;8.682;2023-10-09T11:35:52;21.80;61.20
65568;DHT22;52211;50.154;8.682;2023-10-09T11:38:24;21.90;61.50
65568;DHT22;52211;50.154;8.682;2023-10-09T11:40:52;21.90;61.60
65568;DHT22;52211;50.154;8.682;2023-10-09T11:43:21;22.00;61.50
65568;DHT22;52211;50.154;8.682;2023-10-09T11:46:11;22.10;61.40
65568;DHT22;52211;50.154;8.682;2023-10-09T11:48:38;22.20;61.10
65568;DHT22;52211;50.154;8.682;2023-10-09T11:51:34;22.20;60.90
65568;DHT22;52211;50.154;8.682;2023-10-09T11:54:09;22.30;60.80
65568;DHT22;52211;50.154;8.682;2023-10-09T11:57:00;22.30;60.70
65568;DHT22;52211;50.154;8.682;2023-10-09T11:59:31;22.30;60.60
65568;DHT22;52211;50.154;8.682;2023-10-09T12:02:07;22.40;60.20
65568;DHT22;52211;50.154;8.682;2023-10-09T12:04:43;22.40;60.40
65568;DHT22;52211;50.154;8.682;2023-10-09T12:07:12;22.40;60.60
65568;DHT22;52211;50.154;8.682;2023-10-09T12:09:42;22.50;60.50
65568;DHT22;52211;50.154;8.682;2023-10-09T12:12:12;22.50;60.40
65568;DHT22;52211;50.154;8.682;2023-10-09T12:14:39;22.60;60.50
65568;DHT22;52211;50.154;8.682;2023-10-09T12:17:09;22.70;60.30
65568;DHT22;52211;50.154;8.682;2023-10-09T12:19:39;22.70;60.10
65568;DHT22;52211;50.154;8.682;2023-10-09T12:22:08;22.80;59.90
65568;DHT22;52211;50.154;8.682;2023-10-09T12:24:45;22.80;60.00
65568;DHT22;52211;50.154;8.682;2023-10-09T12:27:15;22.80;59.80
65568;DHT22;52211;50.154;8.682;2023-10-09T12:29:49;22.80;59.80
65568;DHT22;52211;50.154;8.682;2023-10-09T12:32:25;22.80;59.70
65568;DHT22;52211;50.154;8.682;2023-10-09T12:34:52;22.80;59.60
65568;DHT22;52211;50.154;8.682;2023-10-09T12:37:25;22.90;59.70
65568;DHT22;52211;50.154;8.682;2023-10-09T12:39:52;22.80;59.30
65568;DHT22;52211;50.154;8.682;2023-10-09T12:42:22;22.90;59.40
65568;DHT22;52211;50.154;8.682;2023-10-09T12:44:53;22.90;59.30
65568;DHT22;52211;50.154;8.682;2023-10-09T12:47:24;22.80;59.20
65568;DHT22;52211;50.154;8.682;2023-10-09T12:49:54;22.90;59.30
65568;DHT22;52211;50.154;8.682;2023-10-09T12:52:23;22.90;59.10
65568;DHT22;52211;50.154;8.682;2023-10-09T12:54:56;23.00;59.80
65568;DHT22;52211;50.154;8.682;2023-10-09T12:57:23;23.00;59.00
65568;DHT22;52211;50.154;8.682;2023-10-09T12:59:50;23.00;58.90
65568;DHT22;52211;50.154;8.682;2023-10-09T13:02:17;23.00;58.90
65568;DHT22;52211;50.154;8.682;2023-10-09T13:04:57;23.10;58.90
65568;DHT22;52211;50.154;8.682;2023-10-09T13:07:27;23.10;59.00
65568;DHT22;52211;50.154;8.682;2023-10-09T13:09:56;23.10;59.00
65568;DHT22;52211;50.154;8.682;2023-10-09T13:12:37;23.20;59.00
65568;DHT22;52211;50.154;8.682;2023-10-09T13:15:09;23.20;58.90
65568;DHT22;52211;50.154;8.682;2023-10-09T13:17:37;23.20;58.80
65568;DHT22;52211;50.154;8.682;2023-10-09T13:20:05;23.30;58.80
65568;DHT22;52211;50.154;8.682;2023-10-09T13:22:43;23.30;59.40
65568;DHT22;52211;50.154;8.682;2023-10-09T13:25:15;23.40;58.70
65568;DHT22;52211;50.154;8.682;2023-10-09T13:28:02;23.40;58.60
65568;DHT22;52211;50.154;8.682;2023-10-09T13:30:31;23.40;58.40
65568;DHT22;52211;50.154;8.682;2023-10-09T13:33:06;23.50;58.60
65568;DHT22;52211;50.154;8.682;2023-10-09T13:35:41;23.50;58.50
65568;DHT22;52211;50.154;8.682;2023-10-09T13:38:17;23.50;58.40
65568;DHT22;52211;50.154;8.682;2023-10-09T13:40:45;23.50;58.40
65568;DHT22;52211;50.154;8.682;2023-10-09T13:43:12;23.60;58.40
65568;DHT22;52211;50.154;8.682;2023-10-09T13:45:43;23.50;58.40
65568;DHT22;52211;50.154;8.682;2023-10-09T13:48:16;23.60;58.30
65568;DHT22;52211;50.154;8.682;2023-10-09T13:50:46;23.60;58.20
65568;DHT22;52211;50.154;8.682;2023-10-09T13:53:16;23.60;58.10
65568;DHT22;52211;50.154;8.682;2023-10-09T13:55:45;23.60;58.10
65568;DHT22;52211;50.154;8.682;2023-10-09T13:58:14;23.60;58.10
65568;DHT22;52211;50.154;8.682;2023-10-09T14:00:47;23.60;58.00
65568;DHT22;52211;50.154;8.682;2023-10-09T14:03:22;23.60;58.10
65568;DHT22;52211;50.154;8.682;2023-10-09T14:05:53;23.60;58.70
65568;DHT22;52211;50.154;8.682;2023-10-09T14:08:23;23.60;57.90
65568;DHT22;52211;50.154;8.682;2023-10-09T14:10:59;23.60;57.90
65568;DHT22;52211;50.154;8.682;2023-10-09T14:13:30;23.60;57.90
65568;DHT22;52211;50.154;8.682;2023-10-09T14:16:02;23.70;57.90
65568;DHT22;52211;50.154;8.682;2023-10-09T14:18:33;23.60;57.90
65568;DHT22;52211;50.154;8.682;2023-10-09T14:21:02;23.70;58.00
65568;DHT22;52211;50.154;8.682;2023-10-09T14:23:32;23.60;58.00
65568;DHT22;52211;50.154;8.682;2023-10-09T14:26:03;23.70;58.20
65568;DHT22;52211;50.154;8.682;2023-10-09T14:28:33;23.60;58.10
65568;DHT22;52211;50.154;8.682;2023-10-09T14:31:02;23.70;58.20
65568;DHT22;52211;50.154;8.682;2023-10-09T14:33:31;23.60;58.10
65568;DHT22;52211;50.154;8.682;2023-10-09T14:36:05;23.60;58.20
65568;DHT22;52211;50.154;8.682;2023-10-09T14:38:34;23.60;58.30
65568;DHT22;52211;50.154;8.682;2023-10-09T14:41:06;23.60;58.40
65568;DHT22;52211;50.154;8.682;2023-10-09T14:43:41;23.60;58.40
65568;DHT22;52211;50.154;8.682;2023-10-09T14:46:13;23.60;58.40
65568;DHT22;52211;50.154;8.682;2023-10-09T14:48:46;23.60;58.40
65568;DHT22;52211;50.154;8.682;2023-10-09T14:51:18;23.60;58.50
65568;DHT22;52211;50.154;8.682;2023-10-09T14:53:54;23.50;58.50
65568;DHT22;52211;50.154;8.682;2023-10-09T14:56:25;23.50;58.60
65568;DHT22;52211;50.154;8.682;2023-10-09T14:58:58;23.50;58.70
65568;DHT22;52211;50.154;8.682;2023-10-09T15:01:26;23.40;58.70
65568;DHT22;52211;50.154;8.682;2023-10-09T15:04:01;23.40;58.60
65568;DHT22;52211;50.154;8.682;2023-10-09T15:06:30;23.40;58.50
65568;DHT22;52211;50.154;8.682;2023-10-09T15:09:00;23.40;58.50
65568;DHT22;52211;50.154;8.682;2023-10-09T15:11:35;23.40;58.40
65568;DHT22;52211;50.154;8.682;2023-10-09T15:14:05;23.40;58.40
65568;DHT22;52211;50.154;8.682;2023-10-09T15:16:33;23.30;58.20
65568;DHT22;52211;50.154;8.682;2023-10-09T15:19:06;23.30;58.10
65568;DHT22;52211;50.154;8.682;2023-10-09T15:21:36;23.30;58.00
65568;DHT22;52211;50.154;8.682;2023-10-09T15:24:15;23.30;57.80
65568;DHT22;52211;50.154;8.682;2023-10-09T15:26:48;23.30;57.70
65568;DHT22;52211;50.154;8.682;2023-10-09T15:29:21;23.30;57.50
65568;DHT22;52211;50.154;8.682;2023-10-09T15:31:55;23.30;57.30
65568;DHT22;52211;50.154;8.682;2023-10-09T15:34:34;23.30;57.30
65568;DHT22;52211;50.154;8.682;2023-10-09T15:37:03;23.30;57.30
65568;DHT22;52211;50.154;8.682;2023-10-09T15:39:40;23.20;57.00
65568;DHT22;52211;50.154;8.682;2023-10-09T15:42:11;23.30;57.00
65568;DHT22;52211;50.154;8.682;2023-10-09T15:44:47;23.30;57.00
65568;DHT22;52211;50.154;8.682;2023-10-09T15:47:21;23.20;57.00
65568;DHT22;52211;50.154;8.682;2023-10-09T15:49:49;23.30;56.90
65568;DHT22;52211;50.154;8.682;2023-10-09T15:52:27;23.30;56.80
65568;DHT22;52211;50.154;8.682;2023-10-09T15:54:57;23.30;56.60
65568;DHT22;52211;50.154;8.682;2023-10-09T15:57:24;23.20;56.50
65568;DHT22;52211;50.154;8.682;2023-10-09T15:59:50;23.20;56.50
65568;DHT22;52211;50.154;8.682;2023-10-09T16:02:18;23.20;56.40
65568;DHT22;52211;50.154;8.682;2023-10-09T16:04:45;23.20;56.30
65568;DHT22;52211;50.154;8.682;2023-10-09T16:07:14;23.20;56.30
65568;DHT22;52211;50.154;8.682;2023-10-09T16:09:42;23.10;56.20
65568;DHT22;52211;50.154;8.682;2023-10-09T16:12:09;23.20;56.30
65568;DHT22;52211;50.154;8.682;2023-10-09T16:14:39;23.10;56.20
65568;DHT22;52211;50.154;8.682;2023-10-09T16:17:11;23.10;56.10
65568;DHT22;52211;50.154;8.682;2023-10-09T16:19:39;23.10;56.10
65568;DHT22;52211;50.154;8.682;2023-10-09T16:22:07;23.10;56.20
65568;DHT22;52211;50.154;8.682;2023-10-09T16:24:39;23.00;56.10
65568;DHT22;52211;50.154;8.682;2023-10-09T16:27:09;23.00;56.20
65568;DHT22;52211;50.154;8.682;2023-10-09T16:29:37;23.00;56.20